sensor_id;sensor_type;location;lat;lon;timestamp;P1;durP1;ratioP1;P2;durP2;ratioP2
75358;SDS011;64046;51.978;5.934;2023-03-13T00:01:39;22.67;;;4.65;;
75358;SDS011;64046;51.978;5.934;2023-03-13T00:04:09;19.55;;;4.55;;
75358;SDS011;64046;51.978;5.934;2023-03-13T00:06:39;14.35;;;3.88;;
75358;SDS011;64046;51.978;5.934;2023-03-13T00:09:09;18.08;;;3.95;;
75358;SDS011;64046;51.978;5.934;2023-03-13T00:11:40;19.65;;;4.85;;
75358;SDS011;64046;51.978;5.934;2023-03-13T00:14:11;18.73;;;4.18;;
75358;SDS011;64046;51.978;5.934;2023-03-13T00:16:41;16.67;;;3.60;;
75358;SDS011;64046;51.978;5.934;2023-03-13T00:19:10;19.55;;;5.07;;
75358;SDS011;64046;51.978;5.934;2023-03-13T00:21:39;16.15;;;3.67;;
75358;SDS011;64046;51.978;5.934;2023-03-13T00:24:09;21.27;;;4.07;;
75358;SDS011;64046;51.978;5.934;2023-03-13T00:26:39;11.48;;;3.78;;
75358;SDS011;64046;51.978;5.934;2023-03-13T00:29:08;17.67;;;4.55;;
75358;SDS011;64046;51.978;5.934;2023-03-13T00:31:40;21.92;;;4.38;;
75358;SDS011;64046;51.978;5.934;2023-03-13T00:34:09;18.25;;;4.53;;
75358;SDS011;64046;51.978;5.934;2023-03-13T00:36:39;16.02;;;3.80;;
75358;SDS011;64046;51.978;5.934;2023-03-13T00:39:08;17.80;;;4.25;;
75358;SDS011;64046;51.978;5.934;2023-03-13T00:41:37;25.45;;;5.22;;
75358;SDS011;64046;51.978;5.934;2023-03-13T00:44:06;16.40;;;3.67;;
75358;SDS011;64046;51.978;5.934;2023-03-13T00:46:36;19.08;;;4.10;;
75358;SDS011;64046;51.978;5.934;2023-03-13T00:49:07;18.73;;;4.78;;
75358;SDS011;64046;51.978;5.934;2023-03-13T00:51:37;12.13;;;3.00;;
75358;SDS011;64046;51.978;5.934;2023-03-13T00:54:06;15.63;;;4.03;;
75358;SDS011;64046;51.978;5.934;2023-03-13T00:56:36;21.80;;;4.78;;
75358;SDS011;64046;51.978;5.934;2023-03-13T00:59:05;20.50;;;5.05;;
75358;SDS011;64046;51.978;5.934;2023-03-13T01:01:35;15.50;;;4.10;;
75358;SDS011;64046;51.978;5.934;2023-03-13T01:04:05;22.85;;;5.07;;
75358;SDS011;64046;51.978;5.934;2023-03-13T01:06:39;21.95;;;4.30;;
75358;SDS011;64046;51.978;5.934;2023-03-13T01:09:10;24.05;;;4.10;;
75358;SDS011;64046;51.978;5.934;2023-03-13T01:11:41;21.58;;;4.85;;
75358;SDS011;64046;51.978;5.934;2023-03-13T01:14:13;17.42;;;4.25;;
75358;SDS011;64046;51.978;5.934;2023-03-13T01:16:45;22.00;;;4.63;;
75358;SDS011;64046;51.978;5.934;2023-03-13T01:19:17;22.95;;;4.82;;
75358;SDS011;64046;51.978;5.934;2023-03-13T01:21:46;18.17;;;3.95;;
75358;SDS011;64046;51.978;5.934;2023-03-13T01:24:15;15.50;;;4.20;;
75358;SDS011;64046;51.978;5.934;2023-03-13T01:26:45;22.02;;;4.30;;
75358;SDS011;64046;51.978;5.934;2023-03-13T01:29:15;26.33;;;4.32;;
75358;SDS011;64046;51.978;5.934;2023-03-13T01:31:44;16.48;;;4.13;;
75358;SDS011;64046;51.978;5.934;2023-03-13T01:34:13;21.95;;;3.78;;
75358;SDS011;64046;51.978;5.934;2023-03-13T01:36:45;12.30;;;3.70;;
75358;SDS011;64046;51.978;5.934;2023-03-13T01:39:15;20.88;;;4.28;;
75358;SDS011;64046;51.978;5.934;2023-03-13T01:41:45;14.48;;;3.78;;
75358;SDS011;64046;51.978;5.934;2023-03-13T01:44:19;15.52;;;3.88;;
75358;SDS011;64046;51.978;5.934;2023-03-13T01:46:52;20.80;;;4.68;;
75358;SDS011;64046;51.978;5.934;2023-03-13T01:49:21;17.10;;;4.20;;
75358;SDS011;64046;51.978;5.934;2023-03-13T01:52:15;17.35;;;3.63;;
75358;SDS011;64046;51.978;5.934;2023-03-13T01:54:56;14.25;;;3.78;;
75358;SDS011;64046;51.978;5.934;2023-03-13T01:57:31;13.98;;;3.95;;
75358;SDS011;64046;51.978;5.934;2023-03-13T02:00:05;15.98;;;3.10;;
75358;SDS011;64046;51.978;5.934;2023-03-13T02:02:42;9.82;;;2.78;;
75358;SDS011;64046;51.978;5.934;2023-03-13T02:05:16;10.65;;;3.15;;
75358;SDS011;64046;51.978;5.934;2023-03-13T02:07:52;10.75;;;3.10;;
75358;SDS011;64046;51.978;5.934;2023-03-13T02:10:24;9.23;;;3.20;;
75358;SDS011;64046;51.978;5.934;2023-03-13T02:12:55;8.90;;;2.88;;
75358;SDS011;64046;51.978;5.934;2023-03-13T02:15:26;11.20;;;3.00;;
75358;SDS011;64046;51.978;5.934;2023-03-13T02:17:58;10.30;;;3.00;;
75358;SDS011;64046;51.978;5.934;2023-03-13T02:20:28;5.53;;;2.30;;
75358;SDS011;64046;51.978;5.934;2023-03-13T02:23:00;12.60;;;2.97;;
75358;SDS011;64046;51.978;5.934;2023-03-13T02:25:40;10.35;;;2.90;;
75358;SDS011;64046;51.978;5.934;2023-03-13T02:28:14;9.55;;;3.15;;
75358;SDS011;64046;51.978;5.934;2023-03-13T02:30:47;10.05;;;2.70;;
75358;SDS011;64046;51.978;5.934;2023-03-13T02:33:19;8.80;;;2.80;;
75358;SDS011;64046;51.978;5.934;2023-03-13T02:35:50;11.73;;;3.03;;
75358;SDS011;64046;51.978;5.934;2023-03-13T02:38:22;9.45;;;3.22;;
75358;SDS011;64046;51.978;5.934;2023-03-13T02:40:57;12.50;;;3.50;;
75358;SDS011;64046;51.978;5.934;2023-03-13T02:43:29;9.25;;;3.45;;
75358;SDS011;64046;51.978;5.934;2023-03-13T02:46:02;14.18;;;3.58;;
75358;SDS011;64046;51.978;5.934;2023-03-13T02:48:36;8.15;;;2.97;;
75358;SDS011;64046;51.978;5.934;2023-03-13T02:51:08;10.38;;;3.70;;
75358;SDS011;64046;51.978;5.934;2023-03-13T02:53:44;9.13;;;3.00;;
75358;SDS011;64046;51.978;5.934;2023-03-13T02:56:20;9.55;;;3.28;;
75358;SDS011;64046;51.978;5.934;2023-03-13T02:58:53;10.07;;;3.38;;
75358;SDS011;64046;51.978;5.934;2023-03-13T03:01:24;9.40;;;3.40;;
75358;SDS011;64046;51.978;5.934;2023-03-13T03:03:53;10.60;;;3.90;;
75358;SDS011;64046;51.978;5.934;2023-03-13T03:06:23;10.30;;;3.58;;
75358;SDS011;64046;51.978;5.934;2023-03-13T03:08:54;10.98;;;3.95;;
75358;SDS011;64046;51.978;5.934;2023-03-13T03:11:28;10.38;;;3.85;;
75358;SDS011;64046;51.978;5.934;2023-03-13T03:14:02;7.75;;;3.00;;
75358;SDS011;64046;51.978;5.934;2023-03-13T03:16:37;10.75;;;3.63;;
75358;SDS011;64046;51.978;5.934;2023-03-13T03:19:08;8.68;;;3.85;;
75358;SDS011;64046;51.978;5.934;2023-03-13T03:21:37;6.72;;;3.20;;
75358;SDS011;64046;51.978;5.934;2023-03-13T03:24:07;10.02;;;3.20;;
75358;SDS011;64046;51.978;5.934;2023-03-13T03:26:39;7.28;;;3.63;;
75358;SDS011;64046;51.978;5.934;2023-03-13T03:29:15;11.60;;;4.63;;
75358;SDS011;64046;51.978;5.934;2023-03-13T03:31:48;7.20;;;4.22;;
75358;SDS011;64046;51.978;5.934;2023-03-13T03:34:17;9.05;;;4.45;;
75358;SDS011;64046;51.978;5.934;2023-03-13T03:36:46;8.52;;;4.25;;
75358;SDS011;64046;51.978;5.934;2023-03-13T03:39:16;13.38;;;3.63;;
75358;SDS011;64046;51.978;5.934;2023-03-13T03:41:48;9.02;;;4.60;;
75358;SDS011;64046;51.978;5.934;2023-03-13T03:44:17;9.98;;;3.95;;
75358;SDS011;64046;51.978;5.934;2023-03-13T03:46:54;8.50;;;3.55;;
75358;SDS011;64046;51.978;5.934;2023-03-13T03:49:25;11.13;;;3.65;;
75358;SDS011;64046;51.978;5.934;2023-03-13T03:51:55;8.90;;;3.92;;
75358;SDS011;64046;51.978;5.934;2023-03-13T03:54:30;12.85;;;5.13;;
75358;SDS011;64046;51.978;5.934;2023-03-13T03:57:02;6.55;;;3.75;;
75358;SDS011;64046;51.978;5.934;2023-03-13T03:59:33;6.72;;;2.90;;
75358;SDS011;64046;51.978;5.934;2023-03-13T04:02:05;7.22;;;3.40;;
75358;SDS011;64046;51.978;5.934;2023-03-13T04:04:35;8.60;;;4.10;;
75358;SDS011;64046;51.978;5.934;2023-03-13T04:07:17;6.45;;;3.63;;
75358;SDS011;64046;51.978;5.934;2023-03-13T04:09:46;6.32;;;3.10;;
75358;SDS011;64046;51.978;5.934;2023-03-13T04:12:27;7.72;;;3.60;;
75358;SDS011;64046;51.978;5.934;2023-03-13T04:14:57;5.72;;;3.67;;
75358;SDS011;64046;51.978;5.934;2023-03-13T04:17:26;5.32;;;3.88;;
75358;SDS011;64046;51.978;5.934;2023-03-13T04:19:55;5.78;;;3.63;;
75358;SDS011;64046;51.978;5.934;2023-03-13T04:22:25;7.78;;;3.30;;
75358;SDS011;64046;51.978;5.934;2023-03-13T04:24:57;5.80;;;3.28;;
75358;SDS011;64046;51.978;5.934;2023-03-13T04:27:31;5.80;;;3.63;;
75358;SDS011;64046;51.978;5.934;2023-03-13T04:30:03;3.78;;;3.00;;
75358;SDS011;64046;51.978;5.934;2023-03-13T04:32:34;8.30;;;3.90;;
75358;SDS011;64046;51.978;5.934;2023-03-13T04:35:22;8.05;;;3.97;;
75358;SDS011;64046;51.978;5.934;2023-03-13T04:38:07;4.90;;;3.83;;
75358;SDS011;64046;51.978;5.934;2023-03-13T04:40:52;6.85;;;3.67;;
75358;SDS011;64046;51.978;5.934;2023-03-13T04:43:42;6.25;;;3.50;;
75358;SDS011;64046;51.978;5.934;2023-03-13T04:46:41;8.38;;;4.20;;
75358;SDS011;64046;51.978;5.934;2023-03-13T04:49:22;7.32;;;4.13;;
75358;SDS011;64046;51.978;5.934;2023-03-13T04:52:06;6.28;;;4.18;;
75358;SDS011;64046;51.978;5.934;2023-03-13T04:54:51;7.93;;;5.35;;
75358;SDS011;64046;51.978;5.934;2023-03-13T04:57:38;5.93;;;4.20;;
75358;SDS011;64046;51.978;5.934;2023-03-13T05:00:32;6.38;;;4.28;;
75358;SDS011;64046;51.978;5.934;2023-03-13T05:03:14;6.90;;;3.75;;
75358;SDS011;64046;51.978;5.934;2023-03-13T05:05:53;7.72;;;4.60;;
75358;SDS011;64046;51.978;5.934;2023-03-13T05:08:41;8.25;;;3.92;;
75358;SDS011;64046;51.978;5.934;2023-03-13T05:11:36;10.32;;;4.50;;
75358;SDS011;64046;51.978;5.934;2023-03-13T05:14:30;10.55;;;5.32;;
75358;SDS011;64046;51.978;5.934;2023-03-13T05:17:22;9.25;;;4.60;;
75358;SDS011;64046;51.978;5.934;2023-03-13T05:20:10;7.05;;;4.35;;
75358;SDS011;64046;51.978;5.934;2023-03-13T05:23:00;7.80;;;4.32;;
75358;SDS011;64046;51.978;5.934;2023-03-13T05:25:58;6.82;;;4.13;;
75358;SDS011;64046;51.978;5.934;2023-03-13T05:28:54;8.30;;;4.13;;
75358;SDS011;64046;51.978;5.934;2023-03-13T05:31:44;9.57;;;4.30;;
75358;SDS011;64046;51.978;5.934;2023-03-13T05:34:30;6.55;;;4.15;;
75358;SDS011;64046;51.978;5.934;2023-03-13T05:37:07;10.52;;;3.90;;
75358;SDS011;64046;51.978;5.934;2023-03-13T05:39:57;7.60;;;4.45;;
75358;SDS011;64046;51.978;5.934;2023-03-13T05:42:46;9.07;;;4.05;;
75358;SDS011;64046;51.978;5.934;2023-03-13T05:45:24;7.80;;;3.90;;
75358;SDS011;64046;51.978;5.934;2023-03-13T05:48:13;10.13;;;4.35;;
75358;SDS011;64046;51.978;5.934;2023-03-13T05:51:14;7.15;;;3.35;;
75358;SDS011;64046;51.978;5.934;2023-03-13T05:54:14;10.50;;;5.07;;
75358;SDS011;64046;51.978;5.934;2023-03-13T05:56:59;5.03;;;3.50;;
75358;SDS011;64046;51.978;5.934;2023-03-13T05:59:51;7.90;;;3.50;;
75358;SDS011;64046;51.978;5.934;2023-03-13T06:02:39;8.77;;;3.97;;
75358;SDS011;64046;51.978;5.934;2023-03-13T06:05:11;6.13;;;3.92;;
75358;SDS011;64046;51.978;5.934;2023-03-13T06:07:43;9.00;;;3.97;;
75358;SDS011;64046;51.978;5.934;2023-03-13T06:10:13;5.50;;;3.53;;
75358;SDS011;64046;51.978;5.934;2023-03-13T06:12:42;9.38;;;3.75;;
75358;SDS011;64046;51.978;5.934;2023-03-13T06:15:13;9.70;;;3.60;;
75358;SDS011;64046;51.978;5.934;2023-03-13T06:18:03;5.75;;;3.03;;
75358;SDS011;64046;51.978;5.934;2023-03-13T06:20:32;6.40;;;3.00;;
75358;SDS011;64046;51.978;5.934;2023-03-13T06:23:04;7.10;;;3.05;;
75358;SDS011;64046;51.978;5.934;2023-03-13T06:25:33;4.53;;;3.58;;
75358;SDS011;64046;51.978;5.934;2023-03-13T06:28:03;7.38;;;4.13;;
75358;SDS011;64046;51.978;5.934;2023-03-13T06:30:32;5.13;;;3.13;;
75358;SDS011;64046;51.978;5.934;2023-03-13T06:33:01;6.40;;;2.78;;
75358;SDS011;64046;51.978;5.934;2023-03-13T06:35:31;7.15;;;3.40;;
75358;SDS011;64046;51.978;5.934;2023-03-13T06:38:00;5.18;;;3.08;;
75358;SDS011;64046;51.978;5.934;2023-03-13T06:40:32;6.28;;;3.05;;
75358;SDS011;64046;51.978;5.934;2023-03-13T06:43:01;10.60;;;3.63;;
75358;SDS011;64046;51.978;5.934;2023-03-13T06:45:30;9.90;;;3.95;;
75358;SDS011;64046;51.978;5.934;2023-03-13T06:48:02;8.23;;;3.40;;
75358;SDS011;64046;51.978;5.934;2023-03-13T06:50:31;6.00;;;2.85;;
75358;SDS011;64046;51.978;5.934;2023-03-13T06:53:01;9.38;;;3.40;;
75358;SDS011;64046;51.978;5.934;2023-03-13T06:55:32;5.30;;;2.70;;
75358;SDS011;64046;51.978;5.934;2023-03-13T06:58:02;9.95;;;3.72;;
75358;SDS011;64046;51.978;5.934;2023-03-13T07:00:31;9.18;;;2.88;;
75358;SDS011;64046;51.978;5.934;2023-03-13T07:03:00;11.05;;;3.08;;
75358;SDS011;64046;51.978;5.934;2023-03-13T07:05:29;7.57;;;2.90;;
75358;SDS011;64046;51.978;5.934;2023-03-13T07:07:59;8.73;;;2.60;;
75358;SDS011;64046;51.978;5.934;2023-03-13T07:10:28;7.25;;;3.20;;
75358;SDS011;64046;51.978;5.934;2023-03-13T07:13:02;5.78;;;3.03;;
75358;SDS011;64046;51.978;5.934;2023-03-13T07:15:31;9.05;;;2.58;;
75358;SDS011;64046;51.978;5.934;2023-03-13T07:18:00;12.00;;;2.92;;
75358;SDS011;64046;51.978;5.934;2023-03-13T07:20:29;9.90;;;3.03;;
75358;SDS011;64046;51.978;5.934;2023-03-13T07:22:58;8.82;;;2.88;;
75358;SDS011;64046;51.978;5.934;2023-03-13T07:25:28;3.75;;;2.42;;
75358;SDS011;64046;51.978;5.934;2023-03-13T07:27:57;6.90;;;2.50;;
75358;SDS011;64046;51.978;5.934;2023-03-13T07:30:29;9.38;;;2.70;;
75358;SDS011;64046;51.978;5.934;2023-03-13T07:32:58;7.75;;;2.75;;
75358;SDS011;64046;51.978;5.934;2023-03-13T07:35:27;9.25;;;3.30;;
75358;SDS011;64046;51.978;5.934;2023-03-13T07:37:57;6.80;;;2.30;;
75358;SDS011;64046;51.978;5.934;2023-03-13T07:40:26;6.68;;;2.20;;
75358;SDS011;64046;51.978;5.934;2023-03-13T07:42:55;10.68;;;2.88;;
75358;SDS011;64046;51.978;5.934;2023-03-13T07:45:24;7.80;;;3.00;;
75358;SDS011;64046;51.978;5.934;2023-03-13T07:47:56;12.32;;;2.80;;
75358;SDS011;64046;51.978;5.934;2023-03-13T07:50:25;11.23;;;3.25;;
75358;SDS011;64046;51.978;5.934;2023-03-13T07:52:54;5.28;;;2.30;;
75358;SDS011;64046;51.978;5.934;2023-03-13T07:55:23;6.88;;;2.83;;
75358;SDS011;64046;51.978;5.934;2023-03-13T07:57:52;9.75;;;2.80;;
75358;SDS011;64046;51.978;5.934;2023-03-13T08:00:22;6.60;;;2.47;;
75358;SDS011;64046;51.978;5.934;2023-03-13T08:02:51;9.95;;;2.88;;
75358;SDS011;64046;51.978;5.934;2023-03-13T08:05:23;10.02;;;3.10;;
75358;SDS011;64046;51.978;5.934;2023-03-13T08:07:52;7.53;;;2.75;;
75358;SDS011;64046;51.978;5.934;2023-03-13T08:10:21;6.03;;;2.58;;
75358;SDS011;64046;51.978;5.934;2023-03-13T08:12:50;8.43;;;2.40;;
75358;SDS011;64046;51.978;5.934;2023-03-13T08:15:19;5.25;;;2.05;;
75358;SDS011;64046;51.978;5.934;2023-03-13T08:17:50;8.73;;;2.22;;
75358;SDS011;64046;51.978;5.934;2023-03-13T08:20:22;7.80;;;2.60;;
75358;SDS011;64046;51.978;5.934;2023-03-13T08:22:53;7.03;;;2.50;;
75358;SDS011;64046;51.978;5.934;2023-03-13T08:25:23;8.43;;;2.30;;
75358;SDS011;64046;51.978;5.934;2023-03-13T08:27:52;3.88;;;2.40;;
75358;SDS011;64046;51.978;5.934;2023-03-13T08:30:22;5.13;;;2.35;;
75358;SDS011;64046;51.978;5.934;2023-03-13T08:32:51;7.90;;;2.50;;
75358;SDS011;64046;51.978;5.934;2023-03-13T08:35:23;5.40;;;2.20;;
75358;SDS011;64046;51.978;5.934;2023-03-13T08:37:52;3.83;;;2.05;;
75358;SDS011;64046;51.978;5.934;2023-03-13T08:40:21;6.53;;;2.25;;
75358;SDS011;64046;51.978;5.934;2023-03-13T08:42:50;7.55;;;2.35;;
75358;SDS011;64046;51.978;5.934;2023-03-13T08:45:21;6.22;;;2.28;;
75358;SDS011;64046;51.978;5.934;2023-03-13T08:47:51;7.72;;;2.88;;
75358;SDS011;64046;51.978;5.934;2023-03-13T08:50:23;5.90;;;2.47;;
75358;SDS011;64046;51.978;5.934;2023-03-13T08:52:52;8.65;;;2.55;;
75358;SDS011;64046;51.978;5.934;2023-03-13T08:55:21;5.28;;;2.13;;
75358;SDS011;64046;51.978;5.934;2023-03-13T08:57:50;4.60;;;2.10;;
75358;SDS011;64046;51.978;5.934;2023-03-13T09:00:19;5.88;;;2.05;;
75358;SDS011;64046;51.978;5.934;2023-03-13T09:02:49;7.97;;;2.20;;
75358;SDS011;64046;51.978;5.934;2023-03-13T09:05:18;6.88;;;2.47;;
75358;SDS011;64046;51.978;5.934;2023-03-13T09:07:50;5.35;;;2.00;;
75358;SDS011;64046;51.978;5.934;2023-03-13T09:10:21;8.48;;;2.28;;
75358;SDS011;64046;51.978;5.934;2023-03-13T09:12:50;6.30;;;2.00;;
75358;SDS011;64046;51.978;5.934;2023-03-13T09:15:19;7.13;;;2.42;;
75358;SDS011;64046;51.978;5.934;2023-03-13T09:17:49;4.55;;;1.85;;
75358;SDS011;64046;51.978;5.934;2023-03-13T09:20:18;8.15;;;2.22;;
75358;SDS011;64046;51.978;5.934;2023-03-13T09:22:49;6.22;;;2.38;;
75358;SDS011;64046;51.978;5.934;2023-03-13T09:25:18;4.68;;;1.90;;
75358;SDS011;64046;51.978;5.934;2023-03-13T09:27:48;7.47;;;2.45;;
75358;SDS011;64046;51.978;5.934;2023-03-13T09:30:17;6.90;;;2.20;;
75358;SDS011;64046;51.978;5.934;2023-03-13T09:32:46;5.75;;;2.10;;
75358;SDS011;64046;51.978;5.934;2023-03-13T09:35:15;4.45;;;1.80;;
75358;SDS011;64046;51.978;5.934;2023-03-13T09:37:44;9.13;;;2.20;;
75358;SDS011;64046;51.978;5.934;2023-03-13T09:40:18;6.68;;;1.73;;
75358;SDS011;64046;51.978;5.934;2023-03-13T09:42:50;4.50;;;1.63;;
75358;SDS011;64046;51.978;5.934;2023-03-13T09:45:25;4.00;;;1.80;;
75358;SDS011;64046;51.978;5.934;2023-03-13T09:48:00;6.80;;;1.92;;
75358;SDS011;64046;51.978;5.934;2023-03-13T09:50:34;3.70;;;1.50;;
75358;SDS011;64046;51.978;5.934;2023-03-13T09:53:11;3.67;;;1.50;;
75358;SDS011;64046;51.978;5.934;2023-03-13T09:55:45;5.60;;;2.20;;
75358;SDS011;64046;51.978;5.934;2023-03-13T09:58:16;5.55;;;1.70;;
75358;SDS011;64046;51.978;5.934;2023-03-13T10:00:50;4.38;;;1.80;;
75358;SDS011;64046;51.978;5.934;2023-03-13T10:03:22;6.03;;;1.95;;
75358;SDS011;64046;51.978;5.934;2023-03-13T10:05:56;7.75;;;2.45;;
75358;SDS011;64046;51.978;5.934;2023-03-13T10:08:29;5.88;;;1.67;;
75358;SDS011;64046;51.978;5.934;2023-03-13T10:11:02;8.25;;;1.80;;
75358;SDS011;64046;51.978;5.934;2023-03-13T10:13:36;4.93;;;2.00;;
75358;SDS011;64046;51.978;5.934;2023-03-13T10:16:10;6.18;;;2.03;;
75358;SDS011;64046;51.978;5.934;2023-03-13T10:18:42;8.88;;;2.22;;
75358;SDS011;64046;51.978;5.934;2023-03-13T10:21:16;7.65;;;2.05;;
75358;SDS011;64046;51.978;5.934;2023-03-13T10:23:47;8.18;;;2.15;;
75358;SDS011;64046;51.978;5.934;2023-03-13T10:26:24;5.90;;;1.85;;
75358;SDS011;64046;51.978;5.934;2023-03-13T10:29:12;3.60;;;1.45;;
75358;SDS011;64046;51.978;5.934;2023-03-13T10:31:51;3.22;;;2.00;;
75358;SDS011;64046;51.978;5.934;2023-03-13T10:34:24;4.72;;;1.70;;
75358;SDS011;64046;51.978;5.934;2023-03-13T10:36:56;7.28;;;1.70;;
75358;SDS011;64046;51.978;5.934;2023-03-13T10:39:27;6.20;;;2.17;;
75358;SDS011;64046;51.978;5.934;2023-03-13T10:42:07;4.75;;;2.05;;
75358;SDS011;64046;51.978;5.934;2023-03-13T10:44:38;5.53;;;1.58;;
75358;SDS011;64046;51.978;5.934;2023-03-13T10:47:08;3.78;;;1.67;;
75358;SDS011;64046;51.978;5.934;2023-03-13T10:49:50;5.03;;;1.83;;
75358;SDS011;64046;51.978;5.934;2023-03-13T10:52:30;5.07;;;1.90;;
75358;SDS011;64046;51.978;5.934;2023-03-13T10:55:02;5.70;;;1.63;;
75358;SDS011;64046;51.978;5.934;2023-03-13T10:57:36;4.95;;;2.05;;
75358;SDS011;64046;51.978;5.934;2023-03-13T11:00:22;2.42;;;1.40;;
75358;SDS011;64046;51.978;5.934;2023-03-13T11:02:57;3.13;;;1.50;;
75358;SDS011;64046;51.978;5.934;2023-03-13T11:05:31;6.45;;;1.90;;
75358;SDS011;64046;51.978;5.934;2023-03-13T11:10:51;6.10;;;2.58;;
75358;SDS011;64046;51.978;5.934;2023-03-13T11:13:32;6.07;;;1.80;;
75358;SDS011;64046;51.978;5.934;2023-03-13T11:16:15;4.07;;;1.30;;
75358;SDS011;64046;51.978;5.934;2023-03-13T11:18:51;3.95;;;1.90;;
75358;SDS011;64046;51.978;5.934;2023-03-13T11:21:39;3.53;;;1.42;;
75358;SDS011;64046;51.978;5.934;2023-03-13T11:24:18;3.85;;;1.70;;
75358;SDS011;64046;51.978;5.934;2023-03-13T11:26:56;3.90;;;1.70;;
75358;SDS011;64046;51.978;5.934;2023-03-13T11:29:38;6.07;;;1.45;;
75358;SDS011;64046;51.978;5.934;2023-03-13T11:32:16;2.30;;;1.40;;
75358;SDS011;64046;51.978;5.934;2023-03-13T11:34:51;5.38;;;2.20;;
75358;SDS011;64046;51.978;5.934;2023-03-13T11:37:25;4.78;;;1.50;;
75358;SDS011;64046;51.978;5.934;2023-03-13T11:40:02;3.05;;;1.35;;
75358;SDS011;64046;51.978;5.934;2023-03-13T11:42:53;2.97;;;1.23;;
75358;SDS011;64046;51.978;5.934;2023-03-13T11:45:39;4.63;;;1.33;;
75358;SDS011;64046;51.978;5.934;2023-03-13T11:48:25;4.57;;;1.35;;
75358;SDS011;64046;51.978;5.934;2023-03-13T11:51:11;3.72;;;1.85;;
75358;SDS011;64046;51.978;5.934;2023-03-13T11:53:54;1.92;;;1.25;;
75358;SDS011;64046;51.978;5.934;2023-03-13T11:56:35;4.63;;;1.20;;
75358;SDS011;64046;51.978;5.934;2023-03-13T11:59:20;2.80;;;1.48;;
75358;SDS011;64046;51.978;5.934;2023-03-13T12:01:59;3.10;;;1.38;;
75358;SDS011;64046;51.978;5.934;2023-03-13T12:04:35;5.32;;;1.35;;
75358;SDS011;64046;51.978;5.934;2023-03-13T12:07:10;4.53;;;1.15;;
75358;SDS011;64046;51.978;5.934;2023-03-13T12:09:49;3.90;;;1.58;;
75358;SDS011;64046;51.978;5.934;2023-03-13T12:12:25;2.97;;;1.23;;
75358;SDS011;64046;51.978;5.934;2023-03-13T12:15:06;4.82;;;1.55;;
75358;SDS011;64046;51.978;5.934;2023-03-13T12:17:50;5.13;;;1.30;;
75358;SDS011;64046;51.978;5.934;2023-03-13T12:20:23;3.15;;;1.42;;
75358;SDS011;64046;51.978;5.934;2023-03-13T12:22:57;5.07;;;1.95;;
75358;SDS011;64046;51.978;5.934;2023-03-13T12:25:42;2.90;;;1.15;;
75358;SDS011;64046;51.978;5.934;2023-03-13T12:28:18;3.90;;;1.55;;
75358;SDS011;64046;51.978;5.934;2023-03-13T12:30:55;7.13;;;1.42;;
75358;SDS011;64046;51.978;5.934;2023-03-13T12:33:34;4.65;;;1.50;;
75358;SDS011;64046;51.978;5.934;2023-03-13T12:36:11;6.88;;;1.70;;
75358;SDS011;64046;51.978;5.934;2023-03-13T12:38:46;5.35;;;1.98;;
75358;SDS011;64046;51.978;5.934;2023-03-13T12:41:24;4.72;;;1.60;;
75358;SDS011;64046;51.978;5.934;2023-03-13T12:43:57;5.13;;;1.65;;
75358;SDS011;64046;51.978;5.934;2023-03-13T12:46:34;5.07;;;1.30;;
75358;SDS011;64046;51.978;5.934;2023-03-13T12:52:36;4.57;;;2.00;;
75358;SDS011;64046;51.978;5.934;2023-03-13T12:55:30;3.45;;;1.20;;
75358;SDS011;64046;51.978;5.934;2023-03-13T12:58:13;4.40;;;1.30;;
75358;SDS011;64046;51.978;5.934;2023-03-13T13:00:51;5.63;;;1.38;;
75358;SDS011;64046;51.978;5.934;2023-03-13T13:03:24;5.43;;;1.58;;
75358;SDS011;64046;51.978;5.934;2023-03-13T13:06:02;5.45;;;1.55;;
75358;SDS011;64046;51.978;5.934;2023-03-13T13:08:40;5.55;;;1.40;;
75358;SDS011;64046;51.978;5.934;2023-03-13T13:20:32;7.40;;;2.00;;
75358;SDS011;64046;51.978;5.934;2023-03-13T13:23:23;3.67;;;1.42;;
75358;SDS011;64046;51.978;5.934;2023-03-13T13:32:14;3.60;;;1.50;;
75358;SDS011;64046;51.978;5.934;2023-03-13T13:34:53;4.47;;;1.20;;
75358;SDS011;64046;51.978;5.934;2023-03-13T13:37:24;4.20;;;1.50;;
75358;SDS011;64046;51.978;5.934;2023-03-13T13:40:15;5.50;;;1.42;;
75358;SDS011;64046;51.978;5.934;2023-03-13T13:42:51;5.82;;;1.50;;
75358;SDS011;64046;51.978;5.934;2023-03-13T13:45:31;4.32;;;1.58;;
75358;SDS011;64046;51.978;5.934;2023-03-13T13:53:51;7.25;;;1.50;;
75358;SDS011;64046;51.978;5.934;2023-03-13T13:56:34;2.35;;;1.38;;
75358;SDS011;64046;51.978;5.934;2023-03-13T14:04:58;7.15;;;1.40;;
75358;SDS011;64046;51.978;5.934;2023-03-13T14:07:31;4.30;;;1.30;;
75358;SDS011;64046;51.978;5.934;2023-03-13T14:10:16;4.50;;;1.38;;
75358;SDS011;64046;51.978;5.934;2023-03-13T14:12:54;8.18;;;2.20;;
75358;SDS011;64046;51.978;5.934;2023-03-13T14:15:24;8.70;;;2.13;;
75358;SDS011;64046;51.978;5.934;2023-03-13T14:17:56;6.22;;;1.73;;
75358;SDS011;64046;51.978;5.934;2023-03-13T14:20:32;5.05;;;1.80;;
75358;SDS011;64046;51.978;5.934;2023-03-13T14:23:02;8.05;;;1.55;;
75358;SDS011;64046;51.978;5.934;2023-03-13T14:25:41;5.75;;;1.77;;
75358;SDS011;64046;51.978;5.934;2023-03-13T14:28:16;3.47;;;1.52;;
75358;SDS011;64046;51.978;5.934;2023-03-13T14:30:47;5.60;;;1.50;;
75358;SDS011;64046;51.978;5.934;2023-03-13T14:33:18;4.38;;;1.45;;
75358;SDS011;64046;51.978;5.934;2023-03-13T14:35:50;4.15;;;1.83;;
75358;SDS011;64046;51.978;5.934;2023-03-13T14:38:20;10.40;;;1.80;;
75358;SDS011;64046;51.978;5.934;2023-03-13T14:40:50;5.85;;;2.20;;
75358;SDS011;64046;51.978;5.934;2023-03-13T14:43:24;7.53;;;2.10;;
75358;SDS011;64046;51.978;5.934;2023-03-13T14:46:00;6.47;;;2.15;;
75358;SDS011;64046;51.978;5.934;2023-03-13T14:48:42;9.02;;;2.65;;
75358;SDS011;64046;51.978;5.934;2023-03-13T14:51:18;5.30;;;1.92;;
75358;SDS011;64046;51.978;5.934;2023-03-13T14:53:54;5.25;;;2.20;;
75358;SDS011;64046;51.978;5.934;2023-03-13T14:56:32;7.03;;;1.83;;
75358;SDS011;64046;51.978;5.934;2023-03-13T14:59:05;5.55;;;1.70;;
75358;SDS011;64046;51.978;5.934;2023-03-13T15:01:44;5.00;;;1.83;;
75358;SDS011;64046;51.978;5.934;2023-03-13T15:04:14;7.45;;;1.80;;
75358;SDS011;64046;51.978;5.934;2023-03-13T15:06:45;10.02;;;1.77;;
75358;SDS011;64046;51.978;5.934;2023-03-13T15:09:16;5.53;;;1.60;;
75358;SDS011;64046;51.978;5.934;2023-03-13T15:11:54;5.15;;;1.30;;
75358;SDS011;64046;51.978;5.934;2023-03-13T15:14:30;5.90;;;1.63;;
75358;SDS011;64046;51.978;5.934;2023-03-13T15:17:02;14.45;;;2.65;;
75358;SDS011;64046;51.978;5.934;2023-03-13T15:19:37;9.02;;;1.90;;
75358;SDS011;64046;51.978;5.934;2023-03-13T15:22:12;9.32;;;2.08;;
75358;SDS011;64046;51.978;5.934;2023-03-13T15:24:42;7.28;;;1.77;;
75358;SDS011;64046;51.978;5.934;2023-03-13T15:27:14;7.80;;;1.92;;
75358;SDS011;64046;51.978;5.934;2023-03-13T15:29:45;5.30;;;1.75;;
75358;SDS011;64046;51.978;5.934;2023-03-13T15:32:16;9.40;;;2.10;;
75358;SDS011;64046;51.978;5.934;2023-03-13T15:34:51;11.35;;;2.30;;
75358;SDS011;64046;51.978;5.934;2023-03-13T15:37:26;9.18;;;2.60;;
75358;SDS011;64046;51.978;5.934;2023-03-13T15:39:55;9.13;;;2.08;;
75358;SDS011;64046;51.978;5.934;2023-03-13T15:42:25;5.85;;;2.10;;
75358;SDS011;64046;51.978;5.934;2023-03-13T15:44:54;5.18;;;1.92;;
75358;SDS011;64046;51.978;5.934;2023-03-13T15:47:24;9.13;;;2.17;;
75358;SDS011;64046;51.978;5.934;2023-03-13T15:49:54;9.15;;;2.35;;
75358;SDS011;64046;51.978;5.934;2023-03-13T15:52:25;4.65;;;1.92;;
75358;SDS011;64046;51.978;5.934;2023-03-13T15:54:56;9.68;;;2.20;;
75358;SDS011;64046;51.978;5.934;2023-03-13T15:57:26;7.50;;;2.22;;
75358;SDS011;64046;51.978;5.934;2023-03-13T15:59:55;8.73;;;2.47;;
75358;SDS011;64046;51.978;5.934;2023-03-13T16:02:31;10.15;;;2.65;;